createdAt,value
2018-11-04T00:01:04.255Z,2.00
2018-11-04T00:03:32.715Z,2.00
2018-11-04T00:06:01.208Z,2.00
2018-11-04T00:08:29.695Z,2.00
2018-11-04T00:10:58.182Z,1.90
2018-11-04T00:13:26.667Z,2.00
2018-11-04T00:15:55.157Z,2.00
2018-11-04T00:18:23.680Z,2.00
2018-11-04T00:20:52.140Z,2.00
2018-11-04T00:23:20.626Z,2.00
2018-11-04T00:25:49.088Z,2.00
2018-11-04T00:28:17.687Z,2.00
2018-11-04T00:30:46.168Z,2.00
2018-11-04T00:33:14.686Z,1.90
2018-11-04T00:35:43.139Z,1.80
2018-11-04T00:38:11.616Z,1.80
2018-11-04T00:40:40.058Z,1.80
2018-11-04T00:43:08.587Z,1.80
2018-11-04T00:45:37.152Z,1.70
2018-11-04T00:48:05.961Z,1.70
2018-11-04T00:50:34.423Z,1.70
2018-11-04T00:53:02.890Z,1.70
2018-11-04T00:55:31.357Z,1.70
2018-11-04T00:57:59.855Z,1.60
2018-11-04T01:00:28.352Z,1.60
2018-11-04T01:02:56.841Z,1.60
2018-11-04T01:05:25.279Z,1.60
2018-11-04T01:07:53.730Z,1.60
2018-11-04T01:10:22.214Z,1.60
2018-11-04T01:12:50.630Z,1.60
2018-11-04T01:15:19.102Z,1.60
2018-11-04T01:17:47.572Z,1.60
2018-11-04T01:20:16.970Z,1.70
2018-11-04T01:22:45.988Z,1.70
2018-11-04T01:25:14.465Z,1.70
2018-11-04T01:27:42.902Z,1.60
2018-11-04T01:30:13.426Z,1.60
2018-11-04T01:32:41.941Z,1.60
2018-11-04T01:35:10.456Z,1.60
2018-11-04T01:37:38.868Z,1.60
2018-11-04T01:40:08.480Z,1.60
2018-11-04T01:42:37.154Z,1.60
2018-11-04T01:45:06.821Z,1.60
2018-11-04T01:47:37.836Z,1.60
2018-11-04T01:50:09.620Z,1.60
2018-11-04T01:52:40.380Z,1.60
2018-11-04T01:55:09.493Z,1.60
2018-11-04T01:57:38.182Z,1.60
2018-11-04T02:00:11.232Z,1.60
2018-11-04T02:02:39.723Z,1.60
2018-11-04T02:05:09.224Z,1.70
2018-11-04T02:07:37.746Z,1.70
2018-11-04T02:10:07.546Z,1.70
2018-11-04T02:12:36.329Z,1.60
2018-11-04T02:15:05.542Z,1.60
2018-11-04T02:17:33.974Z,1.70
2018-11-04T02:20:02.451Z,1.60
2018-11-04T02:22:30.950Z,1.70
2018-11-04T02:24:59.400Z,1.70
2018-11-04T02:27:28.230Z,1.70
2018-11-04T02:29:56.682Z,1.70
2018-11-04T02:32:25.169Z,1.70
2018-11-04T02:34:53.619Z,1.70
2018-11-04T02:37:22.055Z,1.80
2018-11-04T02:39:50.563Z,1.80
2018-11-04T02:42:19.036Z,1.80
2018-11-04T02:44:47.590Z,1.80
2018-11-04T02:47:16.078Z,1.80
2018-11-04T02:49:44.566Z,1.80
2018-11-04T02:52:13.013Z,1.80
2018-11-04T02:54:41.483Z,1.70
2018-11-04T02:57:10.001Z,1.70
2018-11-04T02:59:38.482Z,1.70
2018-11-04T03:02:07.427Z,1.70
2018-11-04T03:04:35.918Z,1.70
2018-11-04T03:07:04.778Z,1.70
2018-11-04T03:09:33.219Z,1.70
2018-11-04T03:12:01.699Z,1.60
2018-11-04T03:14:30.121Z,1.60
2018-11-04T03:16:58.591Z,1.60
2018-11-04T03:19:27.078Z,1.60
2018-11-04T03:21:55.551Z,1.60
2018-11-04T03:24:24.033Z,1.70
2018-11-04T03:26:52.555Z,1.70
2018-11-04T03:29:21.061Z,1.70
2018-11-04T03:31:50.213Z,1.70
2018-11-04T03:34:18.809Z,1.70
2018-11-04T03:36:47.287Z,1.70
2018-11-04T03:39:15.777Z,1.70
2018-11-04T03:41:44.275Z,1.80
2018-11-04T03:44:13.091Z,1.90
2018-11-04T03:46:41.573Z,1.90
2018-11-04T03:49:10.061Z,2.00
2018-11-04T03:51:38.582Z,2.00
2018-11-04T03:54:07.369Z,2.10
2018-11-04T03:56:36.269Z,2.20
2018-11-04T03:59:05.157Z,2.30
2018-11-04T04:01:33.628Z,2.30
2018-11-04T04:04:02.105Z,2.40
2018-11-04T04:06:30.555Z,2.50
2018-11-04T04:08:58.990Z,2.50
2018-11-04T04:11:27.446Z,2.60
2018-11-04T04:13:55.902Z,2.70
2018-11-04T04:16:24.351Z,2.80
2018-11-04T04:18:52.813Z,2.90
2018-11-04T04:21:21.257Z,3.00
2018-11-04T04:23:49.687Z,3.10
2018-11-04T04:26:18.184Z,3.10
2018-11-04T04:28:46.627Z,3.10
2018-11-04T04:31:15.044Z,3.20
2018-11-04T04:33:43.557Z,3.20
2018-11-04T04:36:12.011Z,3.30
2018-11-04T04:38:40.469Z,3.40
2018-11-04T04:41:08.924Z,3.50
2018-11-04T04:43:37.360Z,3.60
2018-11-04T04:46:05.902Z,3.60
2018-11-04T04:48:35.013Z,3.70
2018-11-04T04:51:03.479Z,3.80
2018-11-04T04:53:31.975Z,3.90
2018-11-04T04:56:01.434Z,4.00
2018-11-04T04:58:29.907Z,4.00
2018-11-04T05:00:58.414Z,4.10
2018-11-04T05:03:26.850Z,4.10
2018-11-04T05:05:55.295Z,4.20
2018-11-04T05:08:23.801Z,4.30
2018-11-04T05:10:52.238Z,4.30
2018-11-04T05:13:20.702Z,4.40
2018-11-04T05:15:49.165Z,4.40
2018-11-04T05:18:17.579Z,4.50
2018-11-04T05:20:46.025Z,4.50
2018-11-04T05:23:14.507Z,4.60
2018-11-04T05:25:42.947Z,4.60
2018-11-04T05:28:11.417Z,4.70
2018-11-04T05:30:39.977Z,4.70
2018-11-04T05:33:08.436Z,4.80
2018-11-04T05:35:36.877Z,4.80
2018-11-04T05:38:05.641Z,4.90
2018-11-04T05:40:34.076Z,4.90
2018-11-04T05:43:02.551Z,5.00
2018-11-04T05:45:31.048Z,5.00
2018-11-04T05:47:59.510Z,5.10
2018-11-04T05:50:27.991Z,5.10
2018-11-04T05:52:56.475Z,5.10
2018-11-04T05:55:24.994Z,5.20
2018-11-04T05:57:53.555Z,5.20
2018-11-04T06:00:22.028Z,5.30
2018-11-04T06:02:50.525Z,5.30
2018-11-04T06:05:18.955Z,5.30
2018-11-04T06:07:47.456Z,5.30
2018-11-04T06:10:15.924Z,5.40
2018-11-04T06:12:44.391Z,5.40
2018-11-04T06:15:12.941Z,5.40
2018-11-04T06:17:41.447Z,5.50
2018-11-04T06:20:10.933Z,5.50
2018-11-04T06:22:39.458Z,5.60
2018-11-04T06:25:08.201Z,5.60
2018-11-04T06:27:36.723Z,5.60
2018-11-04T06:30:07.554Z,5.70
2018-11-04T06:32:36.057Z,5.70
2018-11-04T06:35:05.965Z,5.70
2018-11-04T06:37:35.527Z,5.80
2018-11-04T06:40:04.208Z,5.80
2018-11-04T06:42:32.704Z,5.80
2018-11-04T06:45:01.140Z,5.80
2018-11-04T06:47:29.923Z,5.90
2018-11-04T06:49:58.364Z,5.90
2018-11-04T06:52:26.788Z,6.00
2018-11-04T06:54:55.248Z,6.00
2018-11-04T06:57:23.756Z,6.10
2018-11-04T06:59:52.203Z,6.10
2018-11-04T07:02:20.622Z,6.10
2018-11-04T07:04:49.085Z,6.20
2018-11-04T07:07:17.615Z,6.20
2018-11-04T07:09:46.054Z,6.30
2018-11-04T07:12:14.557Z,6.30
2018-11-04T07:14:43.018Z,6.40
2018-11-04T07:17:11.482Z,6.40
2018-11-04T07:19:39.997Z,6.50
2018-11-04T07:22:08.485Z,6.50
2018-11-04T07:24:36.920Z,6.50
2018-11-04T07:27:05.939Z,6.60
2018-11-04T07:29:34.461Z,6.70
2018-11-04T07:32:03.007Z,6.70
2018-11-04T07:34:31.487Z,6.80
2018-11-04T07:36:59.966Z,6.80
2018-11-04T07:39:28.445Z,6.90
2018-11-04T07:41:56.909Z,7.00
2018-11-04T07:44:25.481Z,7.00
2018-11-04T07:46:53.878Z,7.10
2018-11-04T07:49:23.024Z,7.20
2018-11-04T07:51:51.501Z,7.20
2018-11-04T07:54:19.952Z,7.30
2018-11-04T07:56:48.387Z,7.40
2018-11-04T07:59:16.883Z,7.50
2018-11-04T08:01:45.348Z,7.50
2018-11-04T08:04:13.889Z,7.50
2018-11-04T08:06:53.138Z,7.60
2018-11-04T08:09:21.628Z,7.60
2018-11-04T08:11:50.109Z,7.70
2018-11-04T08:14:18.557Z,7.80
2018-11-04T08:16:47.095Z,7.80
2018-11-04T08:19:15.562Z,7.90
2018-11-04T08:21:45.253Z,7.90
2018-11-04T08:24:13.784Z,8.00
2018-11-04T08:26:42.318Z,8.00
2018-11-04T08:29:10.784Z,8.10
2018-11-04T08:31:39.317Z,8.10
2018-11-04T08:34:07.777Z,8.20
2018-11-04T08:36:36.237Z,8.30
2018-11-04T08:39:05.890Z,8.30
2018-11-04T08:41:34.336Z,8.30
2018-11-04T08:44:02.894Z,8.40
2018-11-04T08:46:31.329Z,8.40
2018-11-04T08:48:59.837Z,8.50
2018-11-04T08:51:28.344Z,8.50
2018-11-04T08:53:56.974Z,8.60
2018-11-04T08:56:25.434Z,8.60
2018-11-04T08:58:53.897Z,8.70
2018-11-04T09:01:22.432Z,8.80
2018-11-04T09:03:51.057Z,8.90
2018-11-04T09:06:19.602Z,9.00
2018-11-04T09:08:48.117Z,9.10
2018-11-04T09:11:16.620Z,9.20
2018-11-04T09:13:45.197Z,9.30
2018-11-04T09:16:13.907Z,9.40
2018-11-04T09:18:42.410Z,9.60
2018-11-04T09:21:10.965Z,9.70
2018-11-04T09:23:39.592Z,9.90
2018-11-04T09:26:08.105Z,10.10
2018-11-04T09:28:36.685Z,10.20
2018-11-04T09:31:05.704Z,10.40
2018-11-04T09:33:34.300Z,10.50
2018-11-04T09:36:03.561Z,10.60
2018-11-04T09:38:33.441Z,10.60
2018-11-04T09:41:02.345Z,10.70
2018-11-04T09:43:30.896Z,10.80
2018-11-04T09:45:59.485Z,10.80
2018-11-04T09:48:28.072Z,10.90
2018-11-04T09:50:56.593Z,10.90
2018-11-04T09:53:25.109Z,11.00
2018-11-04T09:55:53.668Z,11.00
2018-11-04T09:58:22.261Z,11.10
2018-11-04T10:00:50.833Z,11.10
2018-11-04T10:03:19.329Z,11.20
2018-11-04T10:05:47.898Z,11.20
2018-11-04T10:08:16.368Z,11.20
2018-11-04T10:10:45.705Z,11.30
2018-11-04T10:13:14.299Z,11.40
2018-11-04T10:15:42.747Z,11.40
2018-11-04T10:18:11.536Z,11.40
2018-11-04T10:20:40.480Z,11.50
2018-11-04T10:23:08.641Z,11.60
2018-11-04T10:25:37.276Z,11.60
2018-11-04T10:28:06.484Z,11.70
2018-11-04T10:30:35.038Z,11.70
2018-11-04T10:33:03.617Z,11.70
2018-11-04T10:35:32.191Z,11.80
2018-11-04T10:38:00.722Z,11.80
2018-11-04T10:40:29.303Z,11.90
2018-11-04T10:42:57.878Z,12.00
2018-11-04T10:45:26.413Z,12.10
2018-11-04T10:47:55.041Z,12.20
2018-11-04T10:50:23.546Z,12.30
2018-11-04T10:52:52.120Z,12.40
2018-11-04T10:55:20.654Z,12.50
2018-11-04T10:57:49.182Z,12.60
2018-11-04T11:00:23.223Z,12.60
2018-11-04T11:02:51.746Z,12.70
2018-11-04T11:05:20.237Z,12.80
2018-11-04T11:07:48.851Z,12.90
2018-11-04T11:10:17.530Z,13.00
2018-11-04T11:12:47.100Z,13.10
2018-11-04T11:15:15.679Z,13.20
2018-11-04T11:17:44.289Z,13.30
2018-11-04T11:20:13.249Z,13.40
2018-11-04T11:22:42.433Z,13.40
2018-11-04T11:25:11.145Z,13.40
2018-11-04T11:27:39.686Z,13.50
2018-11-04T11:30:08.327Z,13.50
2018-11-04T11:32:36.884Z,13.60
2018-11-04T11:35:06.554Z,13.70
2018-11-04T11:37:35.488Z,13.80
2018-11-04T11:40:04.136Z,13.70
2018-11-04T11:42:32.648Z,13.60
2018-11-04T11:45:01.217Z,13.60
2018-11-04T11:47:29.733Z,13.60
2018-11-04T11:49:58.319Z,13.70
2018-11-04T11:52:26.900Z,13.70
2018-11-04T11:54:55.583Z,13.70
2018-11-04T11:57:24.681Z,13.60
2018-11-04T11:59:53.229Z,13.70
2018-11-04T12:02:21.738Z,13.80
2018-11-04T12:04:50.427Z,13.90
2018-11-04T12:07:33.218Z,13.90
2018-11-04T12:10:01.920Z,14.10
2018-11-04T12:12:30.581Z,14.10
2018-11-04T12:14:59.088Z,14.00
2018-11-04T12:17:27.672Z,14.00
2018-11-04T12:19:56.203Z,14.00
2018-11-04T12:25:15.838Z,14.10
2018-11-04T12:27:44.541Z,14.00
2018-11-04T12:33:03.742Z,14.10
2018-11-04T12:35:32.235Z,14.10
2018-11-04T12:38:00.784Z,14.10
2018-11-04T12:40:50.865Z,14.10
2018-11-04T12:43:19.358Z,14.20
2018-11-04T12:45:55.313Z,14.20
2018-11-04T12:51:14.493Z,14.10
2018-11-04T12:53:43.275Z,14.00
2018-11-04T12:56:11.742Z,14.00
2018-11-04T12:58:40.349Z,14.00
2018-11-04T13:01:08.984Z,14.00
2018-11-04T13:03:37.584Z,13.90
2018-11-04T13:06:06.094Z,13.90
2018-11-04T13:08:34.657Z,13.90
2018-11-04T13:11:03.209Z,13.90
2018-11-04T13:13:51.484Z,13.90
2018-11-04T13:16:20.133Z,13.90
2018-11-04T13:18:48.661Z,13.90
2018-11-04T13:21:17.198Z,13.90
2018-11-04T13:23:45.663Z,14.00
2018-11-04T13:26:14.262Z,14.00
2018-11-04T13:28:52.564Z,14.10
2018-11-04T13:34:00.318Z,14.10
2018-11-04T13:36:51.561Z,14.10
2018-11-04T13:39:20.184Z,14.20
2018-11-04T13:41:53.652Z,14.20
2018-11-04T13:44:22.168Z,14.20
2018-11-04T13:46:52.691Z,14.20
2018-11-04T13:49:21.238Z,14.20
2018-11-04T13:51:49.705Z,14.10
2018-11-04T13:54:18.177Z,14.10
2018-11-04T13:56:46.707Z,14.10
2018-11-04T13:59:15.326Z,14.10
2018-11-04T14:01:43.906Z,14.10
2018-11-04T14:04:12.398Z,14.00
2018-11-04T14:06:40.888Z,14.00
2018-11-04T14:09:09.592Z,13.90
2018-11-04T14:11:38.258Z,13.80
2018-11-04T14:14:06.855Z,13.80
2018-11-04T14:16:35.378Z,13.70
2018-11-04T14:19:03.891Z,13.70
2018-11-04T14:21:36.432Z,13.70
2018-11-04T14:24:05.206Z,13.70
2018-11-04T14:26:33.694Z,13.70
2018-11-04T14:29:02.175Z,13.70
2018-11-04T14:31:30.691Z,13.60
2018-11-04T14:33:59.184Z,13.70
2018-11-04T14:36:27.984Z,13.70
2018-11-04T14:38:56.531Z,13.60
2018-11-04T14:41:25.045Z,13.60
2018-11-04T14:43:53.595Z,13.60
2018-11-04T14:46:22.132Z,13.60
2018-11-04T14:48:50.606Z,13.50
2018-11-04T14:51:19.100Z,13.40
2018-11-04T14:53:47.597Z,13.40
2018-11-04T14:56:16.077Z,13.30
2018-11-04T14:58:53.153Z,13.30
2018-11-04T15:01:21.780Z,13.30
2018-11-04T15:03:54.165Z,13.30
2018-11-04T15:06:23.997Z,13.20
2018-11-04T15:08:52.509Z,13.20
2018-11-04T15:11:21.705Z,13.20
2018-11-04T15:13:50.230Z,13.20
2018-11-04T15:16:18.862Z,13.10
2018-11-04T15:18:47.508Z,13.10
2018-11-04T15:21:16.160Z,13.10
2018-11-04T15:23:44.729Z,13.10
2018-11-04T15:26:13.397Z,13.10
2018-11-04T15:28:53.731Z,13.10
2018-11-04T15:31:22.342Z,13.10
2018-11-04T15:33:52.283Z,13.00
2018-11-04T15:36:20.964Z,13.00
2018-11-04T15:38:49.554Z,12.90
2018-11-04T15:43:57.633Z,12.80
2018-11-04T15:46:26.425Z,12.90
2018-11-04T15:48:55.171Z,12.80
2018-11-04T15:51:23.710Z,12.80
2018-11-04T15:53:53.947Z,12.80
2018-11-04T15:56:40.518Z,12.80
2018-11-04T15:59:09.356Z,12.70
2018-11-04T16:01:52.178Z,12.60
2018-11-04T16:04:20.739Z,12.60
2018-11-04T16:06:53.191Z,12.60
2018-11-04T16:09:37.683Z,12.50
2018-11-04T16:14:52.748Z,12.50
2018-11-04T16:17:21.524Z,12.50
2018-11-04T16:19:50.341Z,12.40
2018-11-04T16:44:52.786Z,11.90
2018-11-04T16:53:23.324Z,11.80
2018-11-04T16:55:52.642Z,11.70
2018-11-04T17:01:11.985Z,11.70
2018-11-04T17:03:41.425Z,11.70
2018-11-04T17:06:09.969Z,11.70
2018-11-04T17:08:38.563Z,11.60
2018-11-04T17:13:58.066Z,11.60
2018-11-04T17:16:26.682Z,11.60
2018-11-04T17:18:56.300Z,11.60
2018-11-04T17:21:24.966Z,11.50
2018-11-04T17:23:53.517Z,11.50
2018-11-04T17:26:22.176Z,11.50
2018-11-04T17:28:50.799Z,11.40
2018-11-04T17:34:04.334Z,11.40
2018-11-04T17:36:33.863Z,11.30
2018-11-04T17:39:02.573Z,11.30
2018-11-04T17:41:31.118Z,11.30
2018-11-04T17:43:59.694Z,11.20
2018-11-04T17:46:39.853Z,11.20
2018-11-04T17:49:08.921Z,11.20
2018-11-04T17:51:52.609Z,11.10
2018-11-04T17:54:21.129Z,11.10
2018-11-04T17:56:49.615Z,11.00
2018-11-04T17:59:18.182Z,10.90
2018-11-04T18:01:53.393Z,10.80
2018-11-04T18:04:28.769Z,10.80
2018-11-04T18:06:57.330Z,10.70
2018-11-04T18:09:25.844Z,10.60
2018-11-04T18:11:54.486Z,10.60
2018-11-04T18:14:31.595Z,10.50
2018-11-04T18:17:00.123Z,10.50
2018-11-04T18:19:28.857Z,10.40
2018-11-04T18:21:57.501Z,10.30
2018-11-04T18:24:26.050Z,10.20
2018-11-04T18:26:54.657Z,10.20
2018-11-04T18:32:14.378Z,10.10
2018-11-04T18:34:42.931Z,10.00
2018-11-04T18:37:20.835Z,10.00
2018-11-04T18:39:49.448Z,9.90
2018-11-04T18:42:17.969Z,9.80
2018-11-04T18:44:46.486Z,9.80
2018-11-04T18:47:15.014Z,9.80
2018-11-04T18:49:44.152Z,9.70
2018-11-04T18:52:12.906Z,9.70
2018-11-04T18:54:41.525Z,9.70
2018-11-04T18:57:10.144Z,9.70
2018-11-04T18:59:47.237Z,9.70
2018-11-04T19:02:16.373Z,9.60
2018-11-04T19:04:45.392Z,9.50
2018-11-04T19:07:14.982Z,9.50
2018-11-04T19:09:43.484Z,9.40
2018-11-04T19:12:12.585Z,9.40
2018-11-04T19:14:52.646Z,9.40
2018-11-04T19:17:21.382Z,9.30
2018-11-04T19:19:50.002Z,9.30
2018-11-04T19:22:18.633Z,9.20
2018-11-04T19:24:47.230Z,9.20
2018-11-04T19:27:15.904Z,9.10
2018-11-04T19:29:45.684Z,9.00
2018-11-04T19:32:14.680Z,9.00
2018-11-04T19:34:43.246Z,9.00
2018-11-04T19:37:11.835Z,9.00
2018-11-04T19:39:40.520Z,8.90
2018-11-04T19:42:09.077Z,8.90
2018-11-04T19:44:52.046Z,8.80
2018-11-04T19:47:20.665Z,8.70
2018-11-04T19:49:53.295Z,8.70
2018-11-04T19:55:13.142Z,8.60
2018-11-04T19:57:52.506Z,8.60
2018-11-04T20:03:11.641Z,8.40
2018-11-04T20:05:52.517Z,8.40
2018-11-04T20:11:12.263Z,8.40
2018-11-04T20:13:57.934Z,8.30
2018-11-04T20:16:26.434Z,8.30
2018-11-04T20:19:00.238Z,8.30
2018-11-04T20:21:29.199Z,8.30
2018-11-04T21:00:51.964Z,7.90
2018-11-04T21:09:01.472Z,7.60
2018-11-04T21:11:30.076Z,7.50
2018-11-04T21:13:58.633Z,7.50
2018-11-04T21:16:27.316Z,7.50
2018-11-04T21:18:55.863Z,7.50
2018-11-04T21:21:24.580Z,7.50
2018-11-04T21:23:53.091Z,7.50
2018-11-04T21:26:21.668Z,7.50
2018-11-04T21:28:53.437Z,7.50
2018-11-04T21:31:21.843Z,7.50
2018-11-04T21:33:53.157Z,7.50
2018-11-04T21:36:23.902Z,7.40
2018-11-04T21:38:53.426Z,7.40
2018-11-04T21:41:21.938Z,7.40
2018-11-04T21:43:50.776Z,7.30
2018-11-04T21:46:18.923Z,7.30
2018-11-04T21:48:53.526Z,7.30
2018-11-04T21:51:22.066Z,7.30
2018-11-04T21:53:53.543Z,7.30
2018-11-04T21:59:12.734Z,7.20
2018-11-04T22:01:41.304Z,7.30
2018-11-04T22:04:10.005Z,7.20
2018-11-04T22:06:38.542Z,7.20
2018-11-04T22:09:08.631Z,7.20
2018-11-04T22:11:37.207Z,7.10
2018-11-04T22:14:06.448Z,7.10
2018-11-04T22:16:34.977Z,7.10
2018-11-04T22:19:03.497Z,7.10
2018-11-04T22:21:31.992Z,7.00
2018-11-04T22:24:00.509Z,7.00
2018-11-04T22:26:29.094Z,7.00
2018-11-04T22:28:57.640Z,7.00
2018-11-04T22:31:26.260Z,7.00
2018-11-04T22:33:54.964Z,7.00
2018-11-04T22:36:23.457Z,6.90
2018-11-04T22:38:53.742Z,6.90
2018-11-04T22:41:22.362Z,6.90
2018-11-04T22:43:50.859Z,6.80
2018-11-04T22:46:19.407Z,6.80
2018-11-04T22:48:53.917Z,6.80
2018-11-04T22:51:22.410Z,6.70
2018-11-04T22:53:53.885Z,6.70
2018-11-04T22:56:22.319Z,6.70
2018-11-04T22:58:50.806Z,6.70
2018-11-04T23:01:20.464Z,6.70
2018-11-04T23:03:48.933Z,6.70
2018-11-04T23:06:17.521Z,6.70
2018-11-04T23:08:52.549Z,6.80
2018-11-04T23:11:21.098Z,6.80
2018-11-04T23:13:49.581Z,6.80
2018-11-04T23:16:18.127Z,6.80
2018-11-04T23:18:53.189Z,6.80
2018-11-04T23:21:21.690Z,6.80
2018-11-04T23:23:54.096Z,6.80
2018-11-04T23:26:22.908Z,6.80
2018-11-04T23:28:51.456Z,6.80
2018-11-04T23:34:09.758Z,6.80
2018-11-04T23:36:38.413Z,6.70
2018-11-04T23:39:08.346Z,6.70
2018-11-04T23:41:36.803Z,6.70
2018-11-04T23:44:05.441Z,6.70
2018-11-04T23:46:33.971Z,6.70
2018-11-04T23:49:02.631Z,6.60
2018-11-04T23:51:31.408Z,6.60
2018-11-04T23:53:59.932Z,6.60
2018-11-04T23:56:28.429Z,6.60
2018-11-04T23:58:56.956Z,6.60
